| time (UTC) | temp F | wind direction | speed knots | gust knots | rain 1hr in | rain 24hr in | rain mn in | humidity % | barometer mb |
| 20260507010046 | 78 | 85 | 0.0 | 5.2 | 0.00 | 0.00 | 0.00 | 51 | 1017.4 |
| 20260507004547 | 77 | 70 | 0.9 | 5.2 | 0.00 | 0.00 | 0.00 | 53 | 1017.4 |
| 20260507003046 | 78 | 288 | 0.0 | 3.5 | 0.00 | 0.00 | 0.00 | 51 | 1017.6 |
| 20260507001544 | 80 | 101 | 0.9 | 5.2 | 0.00 | 0.00 | 0.00 | 49 | 1017.5 |
| 20260507000046 | 79 | 36 | 0.0 | 2.6 | 0.00 | 0.00 | 0.00 | 50 | 1017.8 |
| 20260506234540 | 77 | 81 | 0.0 | 2.6 | 0.00 | 0.00 | 0.00 | 51 | 1017.8 |
| 20260506233037 | 77 | 242 | 0.9 | 3.5 | 0.00 | 0.00 | 0.00 | 52 | 1017.9 |
| 20260506231534 | 78 | 346 | 0.0 | 2.6 | 0.00 | 0.00 | 0.00 | 51 | 1018.1 |
| 20260506230032 | 76 | 55 | 1.7 | 4.3 | 0.00 | 0.00 | 0.00 | 53 | 1018.4 |
| 20260506224528 | 77 | 34 | 0.9 | 7.0 | 0.00 | 0.00 | 0.00 | 52 | 1018.7 |
| 20260506223027 | 77 | 258 | 0.0 | 3.5 | 0.00 | 0.00 | 0.00 | 52 | 1019.0 |
| 20260506221525 | 76 | 344 | 0.0 | 2.6 | 0.00 | 0.00 | 0.00 | 54 | 1019.1 |
| 20260506220025 | 76 | 342 | 0.0 | 2.6 | 0.00 | 0.00 | 0.00 | 55 | 1019.3 |
| 20260506214524 | 74 | 16 | 0.9 | 7.0 | 0.00 | 0.00 | 0.00 | 55 | 1019.5 |
| 20260506213023 | 76 | 349 | 0.9 | 2.6 | 0.00 | 0.00 | 0.00 | 54 | 1019.7 |
| 20260506211519 | 74 | 344 | 0.9 | 4.3 | 0.00 | 0.00 | 0.00 | 56 | 1019.9 |
| 20260506210023 | 73 | 341 | 0.0 | 3.5 | 0.00 | 0.00 | 0.00 | 55 | 1020.1 |
| 20260506204518 | 73 | 88 | 0.0 | 4.3 | 0.00 | 0.00 | 0.00 | 54 | 1020.2 |
| 20260506203020 | 74 | 74 | 1.7 | 4.3 | 0.00 | 0.00 | 0.00 | 51 | 1020.3 |
| 20260506201515 | 74 | 15 | 0.0 | 0.9 | 0.00 | 0.00 | 0.00 | 53 | 1020.4 |
| 20260506200012 | 73 | 59 | 0.9 | 7.0 | 0.00 | 0.00 | 0.00 | 52 | 1020.6 |
| 20260506194510 | 72 | 48 | 0.0 | 1.7 | 0.00 | 0.00 | 0.00 | 56 | 1020.8 |
| 20260506193009 | 72 | 236 | 0.0 | 4.3 | 0.00 | 0.00 | 0.00 | 59 | 1020.9 |
| 20260506191509 | 72 | 72 | 0.9 | 5.2 | 0.00 | 0.00 | 0.00 | 56 | 1021.2 |
| 20260506190007 | 71 | 69 | 0.0 | 1.7 | 0.00 | 0.00 | 0.00 | 58 | 1021.4 |
| 20260506184508 | 71 | 311 | 0.0 | 2.6 | 0.00 | 0.00 | 0.00 | 58 | 1021.4 |
| 20260506183001 | 70 | 261 | 0.9 | 3.5 | 0.00 | 0.00 | 0.00 | 60 | 1021.4 |
| 20260506181600 | 69 | 262 | 0.0 | 2.6 | 0.00 | 0.00 | 0.00 | 62 | 1021.5 |
| 20260506180056 | 68 | 163 | 0.0 | 1.7 | 0.00 | 0.00 | 0.00 | 64 | 1021.5 |
| 20260506174551 | 67 | 181 | 0.0 | 1.7 | 0.00 | 0.00 | 0.00 | 66 | 1021.5 |
| 20260506173049 | 66 | 147 | 0.0 | 1.7 | 0.00 | 0.00 | 0.00 | 65 | 1021.5 |
| 20260506171555 | 66 | 205 | 0.0 | 0.0 | 0.00 | 0.00 | 0.00 | 68 | 1021.5 |
| 20260506170043 | 64 | 41 | 0.0 | 0.0 | 0.00 | 0.00 | 0.00 | 70 | 1021.5 |
| 20260506164539 | 63 | 172 | 0.9 | 1.7 | 0.00 | 0.00 | 0.00 | 71 | 1021.5 |
| 20260506163042 | 63 | 135 | 0.0 | 2.6 | 0.00 | 0.00 | 0.00 | 72 | 1021.5 |
| 20260506161533 | 62 | 107 | 0.0 | 0.9 | 0.00 | 0.00 | 0.00 | 74 | 1021.5 |
| 20260506160033 | 61 | 166 | 0.0 | 2.6 | 0.00 | 0.00 | 0.00 | 74 | 1021.5 |
| 20260506154527 | 60 | 163 | 0.9 | 2.6 | 0.00 | 0.00 | 0.00 | 75 | 1021.5 |
| 20260506153024 | 60 | 167 | 0.0 | 2.6 | 0.00 | 0.00 | 0.00 | 77 | 1021.5 |
| 20260506151531 | 59 | 138 | 0.0 | 3.5 | 0.00 | 0.00 | 0.00 | 77 | 1021.4 |
| 20260506150023 | 59 | 91 | 0.0 | 2.6 | 0.00 | 0.00 | 0.00 | 78 | 1021.4 |
| 20260506144519 | 59 | 165 | 0.0 | 1.7 | 0.00 | 0.00 | 0.00 | 78 | 1021.3 |
| 20260506143020 | 58 | 146 | 0.0 | 4.3 | 0.00 | 0.00 | 0.00 | 79 | 1021.2 |
| 20260506141517 | 58 | 144 | 0.9 | 3.5 | 0.00 | 0.00 | 0.00 | 79 | 1021.1 |
| 20260506140021 | 58 | 157 | 0.0 | 2.6 | 0.00 | 0.00 | 0.00 | 80 | 1020.9 |
| 20260506134514 | 58 | 136 | 1.7 | 3.5 | 0.00 | 0.00 | 0.00 | 80 | 1020.8 |
| 20260506133025 | 58 | 126 | 0.9 | 4.3 | 0.00 | 0.00 | 0.00 | 80 | 1020.7 |
| 20260506131517 | 58 | 122 | 0.9 | 3.5 | 0.00 | 0.00 | 0.00 | 80 | 1020.6 |
| 20260506130012 | 58 | 166 | 0.9 | 4.3 | 0.00 | 0.00 | 0.00 | 80 | 1020.6 |
| 20260506124510 | 58 | 141 | 0.0 | 3.5 | 0.00 | 0.00 | 0.00 | 80 | 1020.5 |
| 20260506123009 | 58 | 147 | 0.9 | 6.1 | 0.00 | 0.00 | 0.00 | 79 | 1020.3 |
| 20260506121507 | 58 | 137 | 0.0 | 2.6 | 0.00 | 0.00 | 0.00 | 79 | 1020.3 |
| 20260506120006 | 58 | 146 | 0.9 | 3.5 | 0.00 | 0.00 | 0.00 | 79 | 1020.2 |
| 20260506114505 | 58 | 88 | 0.9 | 4.3 | 0.00 | 0.00 | 0.00 | 79 | 1020.1 |
| 20260506113008 | 58 | 161 | 1.7 | 5.2 | 0.00 | 0.00 | 0.00 | 79 | 1020.0 |
| 20260506111502 | 58 | 129 | 0.0 | 3.5 | 0.00 | 0.00 | 0.00 | 79 | 1019.9 |
| 20260506110103 | 58 | 157 | 0.9 | 2.6 | 0.00 | 0.00 | 0.00 | 78 | 1019.8 |
| 20260506104601 | 58 | 142 | 0.0 | 4.3 | 0.00 | 0.00 | 0.00 | 78 | 1019.6 |
| 20260506103102 | 58 | 148 | 0.0 | 2.6 | 0.00 | 0.00 | 0.00 | 78 | 1019.5 |
| 20260506101557 | 58 | 128 | 0.9 | 5.2 | 0.00 | 0.00 | 0.00 | 77 | 1019.3 |
| 20260506100059 | 59 | 161 | 0.9 | 4.3 | 0.00 | 0.00 | 0.00 | 77 | 1019.3 |
| 20260506094553 | 59 | 134 | 0.9 | 2.6 | 0.00 | 0.00 | 0.00 | 77 | 1019.3 |
| 20260506093052 | 59 | 144 | 0.9 | 2.6 | 0.00 | 0.00 | 0.00 | 76 | 1019.3 |
| 20260506091554 | 59 | 143 | 0.0 | 4.3 | 0.00 | 0.00 | 0.00 | 76 | 1019.4 |
| 20260506090049 | 59 | 163 | 0.0 | 5.2 | 0.00 | 0.00 | 0.00 | 76 | 1019.3 |
| 20260506084552 | 59 | 161 | 0.9 | 3.5 | 0.00 | 0.00 | 0.00 | 76 | 1019.3 |
| 20260506083051 | 59 | 153 | 0.0 | 2.6 | 0.00 | 0.00 | 0.00 | 75 | 1019.3 |
| 20260506081546 | 60 | 199 | 0.0 | 4.3 | 0.00 | 0.00 | 0.00 | 75 | 1019.4 |
| 20260506073043 | 60 | 186 | 0.0 | 2.6 | 0.00 | 0.02 | 0.00 | 75 | 1019.0 |
| 20260506071540 | 60 | 136 | 0.9 | 3.5 | 0.00 | 0.02 | 0.00 | 75 | 1018.9 |
| 20260506061534 | 61 | 186 | 0.0 | 3.5 | 0.00 | 0.10 | 0.02 | 74 | 1018.4 |
| 20260506044527 | 61 | 254 | 0.9 | 4.3 | 0.00 | 0.25 | 0.02 | 74 | 1017.5 |
| 20260506043025 | 62 | 194 | 0.9 | 6.1 | 0.00 | 0.25 | 0.02 | 74 | 1017.3 |
| 20260506041521 | 62 | 173 | 1.7 | 6.1 | 0.00 | 0.25 | 0.02 | 74 | 1017.0 |
| 20260506040034 | 62 | 179 | 0.0 | 5.2 | 0.00 | 0.25 | 0.02 | 73 | 1017.0 |
| 20260506034521 | 63 | 242 | 1.7 | 6.1 | 0.00 | 0.38 | 0.02 | 73 | 1017.0 |
| 20260506033019 | 63 | 213 | 3.5 | 7.0 | 0.00 | 0.38 | 0.02 | 72 | 1016.9 |
| 20260506031517 | 64 | 258 | 0.0 | 6.1 | 0.00 | 0.38 | 0.02 | 72 | 1016.7 |
| 20260506030016 | 64 | 172 | 0.9 | 8.7 | 0.00 | 0.38 | 0.02 | 70 | 1016.3 |
| 20260506024516 | 64 | 170 | 1.7 | 7.0 | 0.00 | 0.42 | 0.02 | 70 | 1016.2 |
| 20260506023025 | 65 | 192 | 0.0 | 5.2 | 0.00 | 0.42 | 0.02 | 70 | 1016.0 |
| 20260506021528 | 65 | 178 | 0.9 | 7.0 | 0.00 | 0.42 | 0.02 | 69 | 1015.8 |
| 20260506020013 | 66 | 146 | 1.7 | 7.0 | 0.00 | 0.42 | 0.02 | 67 | 1015.8 |
| 20260506014513 | 67 | 18 | 1.7 | 7.0 | 0.00 | 0.46 | 0.02 | 65 | 1015.7 |
| 20260506013012 | 67 | 20 | 2.6 | 5.2 | 0.00 | 0.46 | 0.02 | 63 | 1015.6 |
| 20260506011512 | 68 | 17 | 0.0 | 7.0 | 0.00 | 0.46 | 0.02 | 62 | 1015.5 |